Latest Weather Observations for East Sale

IDV60801

Issued at 10:05 pm EST Saturday 30 August 2014 (issued every 30 minutes, with the page automatically refreshed every 10 minutes)

About weather observations | Map of weather stations | Latest weather observations for VIC | Other Formats
Station Details ID: 085072 Name: EAST SALE AIRPORT Lat: -38.12 Lon: 147.13 Height: 4.6 m
Data from the previous 72 hours. | See also: Recent months at East Sale
Date/Time
EST
Temp
°C
App
Temp
°C
Dew
Point
Rel
Hum
%
Delta-T
°C
Wind Press
QNH
hPa
Press
MSL
hPa
Rain
since 9 am
mm
Dir
 
Spd
km/h
Gust
km/h
Spd
kts
Gust
kts
30/10:00pm 7.1 6.4 7.1 100 0.0 WNW 0 0 0 0 1023.3 - 0.0
30/09:42pm 6.9 6.1 6.7 99 0.1 NW 0 0 0 0 1023.4 - 0.0
30/09:30pm 7.4 6.7 7.0 97 0.2 NW 0 0 0 0 1023.4 - 0.0
30/09:29pm 7.4 6.7 7.0 97 0.2 CALM 0 0 0 0 1023.4 - 0.0
30/09:00pm 7.4 6.7 7.0 97 0.2 CALM 0 0 0 0 1023.6 1023.6 0.0
30/08:49pm 7.9 7.4 7.9 100 0.0 CALM 0 0 0 0 1023.7 - 0.0
30/08:31pm 8.7 8.4 8.5 99 0.1 CALM 0 0 0 0 1023.6 - 0.0
30/08:30pm 8.8 8.4 8.4 97 0.2 CALM 0 0 0 0 1023.6 - 0.0
30/08:00pm 8.9 7.4 8.3 96 0.3 ENE 6 7 3 4 1023.6 - 0.0
30/07:30pm 10.2 7.9 9.0 92 0.6 E 11 13 6 7 1023.7 - 0.0
30/07:00pm 10.2 7.5 8.8 91 0.7 E 13 15 7 8 1023.8 - 0.0
30/06:30pm 10.8 7.7 9.0 89 0.9 E 15 19 8 10 1023.8 - 0.0
30/06:00pm 11.7 8.7 9.3 85 1.2 E 15 20 8 11 1023.8 1023.8 0.0
30/05:30pm 12.9 8.9 8.9 76 2.0 E 20 26 11 14 1023.7 - 0.0
30/05:00pm 13.8 8.5 8.4 70 2.7 E 26 32 14 17 1023.5 - 0.0
30/04:30pm 14.4 8.9 7.7 64 3.3 E 26 32 14 17 1023.6 - 0.0
30/04:00pm 14.9 9.4 7.6 61 3.6 E 26 32 14 17 1023.5 - 0.0
30/03:30pm 15.4 9.7 8.3 62 3.6 E 28 35 15 19 1023.6 - 0.0
30/03:00pm 15.4 9.5 7.3 58 4.0 E 28 33 15 18 1023.7 1023.7 0.0
30/02:30pm 15.7 9.4 7.5 58 4.1 E 30 37 16 20 1023.9 - 0.0
30/02:00pm 15.6 9.2 7.1 57 4.2 E 30 35 16 19 1024.2 - 0.0
30/01:30pm 15.5 9.4 6.7 55 4.3 E 28 35 15 19 1024.5 - 0.0
30/01:00pm 15.5 9.4 6.7 55 4.3 E 28 33 15 18 1025.1 - 0.0
30/12:30pm 15.1 8.9 6.2 55 4.3 E 28 33 15 18 1025.7 - 0.0
30/12:00pm 14.9 10.1 7.4 61 3.7 E 22 30 12 16 1026.2 1026.2 0.0
30/11:30am 13.9 9.7 8.3 69 2.8 E 20 28 11 15 1026.8 - 0.0
30/11:00am 12.7 8.9 9.1 79 1.8 E 19 20 10 11 1027.4 - 0.0
30/10:30am 10.7 8.8 9.1 90 0.8 SE 9 13 5 7 1027.9 - 0.0
30/10:00am 9.4 7.9 8.6 95 0.4 ESE 6 9 3 5 1028.3 - 0.0
30/09:30am 8.5 7.7 8.3 99 0.1 SSE 2 7 1 4 1028.6 - 0.0
30/09:00am 7.7 7.1 7.3 97 0.2 CALM 0 0 0 0 1028.8 1028.8 0.2
30/08:48am 7.1 6.3 6.4 95 0.3 CALM 0 4 0 2 1028.8 - 0.2
30/08:30am 6.9 5.9 5.8 93 0.5 ESE 0 6 0 3 1028.8 - 0.2
30/08:24am 5.9 4.8 5.2 95 0.3 CALM 0 0 0 0 1028.8 - 0.2
30/08:00am 5.0 3.8 4.8 99 0.1 CALM 0 0 0 0 1028.8 - 0.2
30/07:30am 5.1 4.0 4.9 99 0.1 CALM 0 0 0 0 1028.8 - 0.2
30/07:00am 4.8 3.6 4.8 100 0.0 CALM 0 0 0 0 1028.7 - 0.2
30/06:30am 4.7 3.5 4.7 100 0.0 CALM 0 4 0 2 1028.6 - 0.2
30/06:00am 5.0 3.1 5.0 100 0.0 N 4 6 2 3 1028.3 1028.3 0.2
30/05:30am 5.7 3.6 5.7 100 0.0 N 6 6 3 3 1028.5 - 0.2
30/05:00am 6.1 4.8 6.1 100 0.0 NW 2 6 1 3 1028.5 - 0.2
30/04:30am 6.1 5.2 6.1 100 0.0 CALM 0 0 0 0 1028.5 - 0.0
30/04:00am 6.4 5.5 6.2 99 0.1 CALM 0 0 0 0 1028.5 - 0.0
30/03:30am 6.8 5.7 6.8 100 0.0 WNW 2 6 1 3 1028.6 - 0.0
30/03:00am 6.8 4.7 6.6 99 0.1 WNW 7 9 4 5 1028.8 1028.8 0.0
30/02:30am 6.8 4.7 6.6 99 0.1 NNW 7 7 4 4 1028.9 - 0.0
30/02:00am 6.9 4.5 6.9 100 0.0 NNW 9 9 5 5 1029.0 - 0.0
30/01:30am 7.5 4.8 7.3 99 0.1 NW 11 11 6 6 1029.0 - 0.0
30/01:00am 9.5 7.7 9.3 99 0.1 NNW 9 11 5 6 1029.2 - 0.0
30/12:30am 9.5 8.1 9.5 100 0.0 E 7 11 4 6 1029.2 - 0.0
30/12:00am 9.5 7.7 9.3 99 0.1 E 9 11 5 6 1029.2 1029.2 0.0
 
Date/Time
EST
Temp
°C
App
Temp
°C
Dew
Point
Rel
Hum
%
Delta-T
°C
Wind Press
QNH
hPa
Press
MSL
hPa
Rain
since 9 am
mm
Dir
 
Spd
km/h
Gust
km/h
Spd
kts
Gust
kts
29/11:30pm 9.3 7.8 9.1 99 0.1 E 7 9 4 5 1029.3 - 0.0
29/11:00pm 9.6 8.2 9.4 99 0.1 E 7 11 4 6 1029.3 - 0.0
29/10:30pm 9.7 9.6 9.3 97 0.2 CALM 0 0 0 0 1029.4 - 0.0
29/10:00pm 9.1 8.9 8.9 99 0.1 CALM 0 0 0 0 1029.5 - 0.0
29/09:30pm 9.0 8.4 8.8 99 0.1 ENE 2 7 1 4 1029.4 - 0.0
29/09:00pm 9.8 8.4 9.6 99 0.1 E 7 9 4 5 1029.3 1029.3 0.0
29/08:30pm 10.1 8.0 9.9 99 0.1 ENE 11 15 6 8 1029.3 - 0.0
29/08:17pm 10.0 7.9 9.6 97 0.2 E 11 15 6 8 1029.2 - 0.0
29/08:00pm 10.1 7.6 9.7 97 0.2 E 13 17 7 9 1029.2 - 0.0
29/07:55pm 10.0 7.5 9.8 99 0.1 E 13 17 7 9 1029.2 - 0.0
29/07:30pm 10.1 7.7 9.9 99 0.1 E 13 17 7 9 1029.0 - 0.0
29/07:00pm 10.2 7.4 10.0 99 0.1 E 15 19 8 10 1028.8 - 0.0
29/06:30pm 10.5 7.7 9.9 96 0.3 E 15 19 8 10 1028.7 - 0.0
29/06:26pm 10.5 8.0 9.7 95 0.4 E 13 19 7 10 1028.7 - 0.0
29/06:00pm 10.4 8.3 9.6 95 0.4 E 11 15 6 8 1028.4 1028.4 0.0
29/05:30pm 11.0 9.0 10.0 93 0.5 ESE 11 15 6 8 1028.3 - 0.0
29/05:22pm 11.3 9.0 10.3 94 0.5 ESE 13 17 7 9 1028.3 - 0.0
29/05:00pm 11.9 8.4 10.1 89 0.9 ESE 19 20 10 11 1028.2 - 0.0
29/04:30pm 13.1 9.1 10.6 85 1.3 ESE 22 28 12 15 1028.0 - 0.0
29/04:00pm 14.7 11.3 11.1 79 1.9 ESE 20 24 11 13 1027.7 - 0.0
29/03:30pm 15.1 11.4 11.4 78 2.0 E 22 24 12 13 1027.6 - 0.0
29/03:00pm 16.0 13.1 12.2 78 2.1 E 19 22 10 12 1027.6 1027.6 0.0
29/02:30pm 15.8 13.2 12.1 78 2.0 E 17 20 9 11 1027.8 - 0.0
29/02:00pm 15.3 13.1 12.0 81 1.8 E 15 20 8 11 1028.0 - 0.0
29/01:30pm 15.7 13.9 12.2 80 1.9 E 13 17 7 9 1028.2 - 0.0
29/01:00pm 15.3 14.0 11.2 76 2.2 ESE 9 15 5 8 1028.4 - 0.0
29/12:30pm 14.6 13.8 11.8 83 1.5 ESE 7 13 4 7 1028.9 - 0.0
29/12:00pm 13.8 12.5 11.2 84 1.4 SSE 9 11 5 6 1029.1 1029.1 0.0
29/11:30am 13.3 11.9 11.0 86 1.2 S 9 13 5 7 1029.5 - 0.0
29/11:17am 12.8 11.8 11.1 89 0.9 S 7 11 4 6 1029.6 - 0.0
29/11:00am 13.2 13.3 11.5 89 0.9 SSW 2 7 1 4 1029.5 - 0.0
29/10:30am 11.7 10.6 10.5 92 0.6 SW 7 9 4 5 1029.7 - 0.0
29/10:00am 10.0 7.8 9.4 96 0.3 W 11 13 6 7 1029.9 - 0.0
29/09:30am 8.2 6.0 7.8 97 0.2 W 9 13 5 7 1030.0 - 0.0
29/09:19am 7.6 4.9 7.4 99 0.1 W 11 13 6 7 1029.9 - 0.0
29/09:00am 6.8 3.9 6.6 99 0.1 W 11 13 6 7 1029.9 1029.9 0.2
29/08:30am 5.6 2.9 5.4 99 0.1 WNW 9 11 5 6 1029.6 - 0.2
29/08:00am 4.8 1.9 4.6 99 0.1 NW 9 11 5 6 1029.6 - 0.2
29/07:30am 4.8 1.9 4.8 100 0.0 NW 9 11 5 6 1029.3 - 0.2
29/07:00am 4.4 1.5 4.4 100 0.0 NW 9 11 5 6 1029.0 - 0.2
29/06:30am 4.9 2.4 4.9 100 0.0 NNW 7 9 4 5 1028.8 - 0.2
29/06:00am 5.4 2.7 5.4 100 0.0 WNW 9 11 5 6 1028.7 1028.7 0.2
29/05:30am 5.8 3.1 5.8 100 0.0 NW 9 9 5 5 1028.6 - 0.2
29/05:00am 5.7 3.5 5.5 99 0.1 NNW 6 7 3 4 1028.5 - 0.2
29/04:30am 5.6 3.2 5.4 99 0.1 NW 7 9 4 5 1028.5 - 0.0
29/04:00am 5.4 3.2 5.4 100 0.0 NW 6 7 3 4 1028.4 - 0.0
29/03:30am 5.6 3.2 5.4 99 0.1 WNW 7 9 4 5 1028.3 - 0.0
29/03:00am 5.3 3.1 5.3 100 0.0 NNW 6 7 3 4 1028.2 1028.2 0.0
29/02:30am 5.8 3.5 5.6 99 0.1 W 7 9 4 5 1028.3 - 0.0
29/02:00am 5.7 3.4 5.7 100 0.0 WNW 7 9 4 5 1028.4 - 0.0
29/01:30am 5.7 3.0 5.7 100 0.0 NW 9 13 5 7 1028.6 - 0.0
29/01:00am 5.7 3.0 5.7 100 0.0 NW 9 11 5 6 1028.8 - 0.0
29/12:30am 4.6 2.0 4.1 97 0.2 NNW 7 11 4 6 1028.7 - 0.0
29/12:04am 5.9 4.5 5.7 99 0.1 WNW 2 9 1 5 1028.8 - 0.0
29/12:00am 5.6 4.6 5.6 100 0.0 CALM 0 2 0 1 1028.8 1028.8 0.0
 
Date/Time
EST
Temp
°C
App
Temp
°C
Dew
Point
Rel
Hum
%
Delta-T
°C
Wind Press
QNH
hPa
Press
MSL
hPa
Rain
since 9 am
mm
Dir
 
Spd
km/h
Gust
km/h
Spd
kts
Gust
kts
28/11:51pm 5.6 4.6 5.4 99 0.1 CALM 0 2 0 1 1028.8 - 0.0
28/11:42pm 5.5 4.1 5.5 100 0.0 W 2 6 1 3 1028.8 - 0.0
28/11:37pm 6.0 4.3 5.8 99 0.1 W 4 6 2 3 1028.8 - 0.0
28/11:30pm 6.1 4.4 5.9 99 0.1 W 4 7 2 4 1028.9 - 0.0
28/11:00pm 5.4 2.7 5.4 100 0.0 WNW 9 11 5 6 1029.0 - 0.0
28/10:30pm 6.5 5.7 6.5 100 0.0 CALM 0 0 0 0 1029.0 - 0.0
28/10:21pm 6.6 5.8 6.4 99 0.1 CALM 0 0 0 0 1029.1 - 0.0
28/10:08pm 6.1 5.1 5.6 97 0.2 CALM 0 0 0 0 1029.1 - 0.0
28/10:00pm 5.8 4.4 5.6 99 0.1 S 2 6 1 3 1029.2 - 0.0
28/09:56pm 6.2 4.5 5.7 97 0.2 S 4 6 2 3 1029.2 - 0.0
28/09:30pm 7.0 6.2 6.6 97 0.2 CALM 0 0 0 0 1029.2 - 0.0
28/09:00pm 7.6 6.2 7.2 97 0.2 ESE 4 6 2 3 1029.1 1029.1 0.0
28/08:58pm 7.6 6.2 7.4 99 0.1 ESE 4 6 2 3 1029.1 - 0.0
28/08:30pm 8.5 6.9 8.1 97 0.2 SSE 6 7 3 4 1029.1 - 0.0
28/08:00pm 8.3 6.9 7.2 93 0.5 E 4 6 2 3 1029.0 - 0.0
28/07:30pm 9.4 7.9 8.4 93 0.5 E 6 7 3 4 1028.9 - 0.0
28/07:00pm 9.6 7.4 7.9 89 0.8 E 9 11 5 6 1028.7 - 0.0
28/06:30pm 10.0 7.0 7.9 87 1.0 E 13 13 7 7 1028.4 - 0.0
28/06:00pm 10.5 7.2 8.0 84 1.2 ESE 15 15 8 8 1028.3 1028.3 0.0
28/05:30pm 12.1 9.0 8.7 80 1.7 ESE 15 17 8 9 1028.1 - 0.0
28/05:00pm 13.3 9.8 8.9 74 2.2 E 17 20 9 11 1027.8 - 0.0
28/04:30pm 14.1 10.0 8.8 70 2.7 E 20 24 11 13 1027.6 - 0.0
28/04:00pm 15.4 11.4 8.9 65 3.3 E 20 24 11 13 1027.5 - 0.0
28/03:30pm 16.5 13.2 8.0 57 4.3 ESE 15 19 8 10 1027.4 - 0.0
28/03:00pm 16.4 13.6 8.6 60 4.0 E 13 17 7 9 1027.4 1027.4 0.0
28/02:30pm 16.3 13.8 9.6 64 3.5 E 13 17 7 9 1027.6 - 0.0
28/02:00pm 16.1 13.6 9.6 65 3.4 E 13 17 7 9 1027.6 - 0.0
28/01:30pm 15.7 13.1 9.3 65 3.3 ENE 13 19 7 10 1027.9 - 0.0
28/01:00pm 15.2 13.2 10.0 71 2.7 E 11 15 6 8 1028.3 - 0.0
28/12:30pm 14.8 13.6 10.4 75 2.3 ESE 7 11 4 6 1028.8 - 0.0
28/12:00pm 13.2 11.4 9.5 78 1.9 E 9 11 5 6 1029.2 1029.2 0.0
28/11:30am 13.0 11.8 9.5 79 1.8 ESE 6 9 3 5 1029.7 - 0.0
28/11:00am 12.0 11.4 8.8 81 1.6 NNW 2 7 1 4 1030.0 - 0.0
28/10:30am 11.3 10.4 7.8 79 1.7 WNW 2 7 1 4 1030.2 - 0.0
28/10:00am 9.7 7.8 7.6 87 1.0 NW 7 9 4 5 1030.5 - 0.0
28/09:30am 8.0 5.6 7.1 94 0.4 NW 9 11 5 6 1030.6 - 0.0
28/09:14am 7.1 5.0 6.7 97 0.2 WNW 7 9 4 5 1030.6 - 0.0
28/09:00am 6.4 4.2 6.0 97 0.2 WNW 7 9 4 5 1030.7 1030.7 0.4
28/08:30am 5.3 2.9 5.1 99 0.1 NW 7 7 4 4 1030.6 - 0.4
28/08:00am 4.4 2.0 4.2 99 0.1 NW 6 7 3 4 1030.6 - 0.4
28/07:30am 3.6 0.8 3.4 99 0.1 WNW 7 9 4 5 1030.5 - 0.4
28/07:00am 3.4 0.6 3.2 99 0.1 WNW 7 9 4 5 1030.3 - 0.4
28/06:30am 3.3 0.1 3.1 99 0.1 WNW 9 9 5 5 1029.9 - 0.4
28/06:00am 3.3 0.6 2.8 97 0.2 NW 6 7 3 4 1029.6 1029.6 0.2
28/05:30am 2.8 -0.5 2.3 96 0.2 WNW 9 11 5 6 1029.6 - 0.2
28/05:00am 2.7 -1.7 2.7 100 0.0 WNW 15 17 8 9 1029.4 - 0.2
28/04:46am 2.7 -0.9 2.7 100 0.0 NW 11 13 6 7 1029.4 - 0.2
28/04:31am 2.9 -0.7 2.9 100 0.0 NW 11 13 6 7 1029.2 - 0.2
28/04:30am 2.9 -0.3 2.9 100 0.0 NW 9 13 5 7 1029.2 - 0.2
28/04:00am 3.8 0.7 3.6 99 0.1 NW 9 9 5 5 1029.1 - 0.2
28/03:30am 4.2 1.6 4.0 99 0.1 NW 7 9 4 5 1029.1 - 0.2
28/03:00am 5.2 2.8 5.2 100 0.0 W 7 9 4 5 1029.1 1029.1 0.2
28/02:30am 5.2 2.4 5.0 99 0.1 WNW 9 9 5 5 1029.1 - 0.2
28/02:00am 5.4 2.6 5.2 99 0.1 WNW 9 11 5 6 1029.1 - 0.2
28/01:30am 5.5 2.8 5.5 100 0.0 NW 9 11 5 6 1029.3 - 0.2
28/01:00am 6.0 3.3 5.8 99 0.1 NW 9 11 5 6 1029.5 - 0.2
28/12:30am 4.5 2.0 4.5 100 0.0 W 7 13 4 7 1029.6 - 0.2
28/12:00am 4.7 2.7 4.2 97 0.2 SSW 4 6 2 3 1029.3 1029.3 0.2
 
Date/Time
EST
Temp
°C
App
Temp
°C
Dew
Point
Rel
Hum
%
Delta-T
°C
Wind Press
QNH
hPa
Press
MSL
hPa
Rain
since 9 am
mm
Dir
 
Spd
km/h
Gust
km/h
Spd
kts
Gust
kts
27/11:30pm 6.3 4.3 6.1 99 0.1 ESE 6 6 3 3 1029.3 - 0.2
27/11:13pm 6.4 3.9 6.4 100 0.0 S 9 9 5 5 1029.4 - 0.2
27/11:06pm 7.6 5.2 7.2 97 0.2 S 9 11 5 6 1029.4 - 0.2
27/11:00pm 7.0 4.6 7.0 100 0.0 SSW 9 11 5 6 1029.5 - 0.2
27/10:30pm 8.6 7.0 8.6 100 0.0 SSW 7 9 4 5 1029.6 - 0.2

Other Formats:

Comma delimited format used in spreadsheet applications
http://www.bom.gov.au/fwo/IDV60801/IDV60801.94907.axf

JavaScript Object Notation format (JSON) in row-major order
http://www.bom.gov.au/fwo/IDV60801/IDV60801.94907.json